메인 페이지
METAR-TAF:

METAR-TAF

공항 :

푸앵타피트르 국제공항

Pointe-à-Pitre, 과들루프

위도: 16-16N, 경도: 061-31W, 고도: 11m

현재 날씨관측

예보는 35분 전, 10:00시(UTC)에 발표되었습니다.
북북동9kt
온도 22°C
습도 88%
기압 1017 hPa
시정 10km 이상
고도 900ft 상공 구름 조금
고도 4000ft 상공 구름 보통
고도 4700ft 상공 구름 많음

METAR: TFFR 181000Z AUTO 03009KT 9999 FEW009 SCT040 BKN047 22/20 Q1017 TEMPO 2000 SHRA BKN015CB

시각: 06:35 (10:35 UTC)

예보

예보는 5 시간 35분 전, 05:00시(UTC)에 발표되었습니다.
예보 대상 시간: 18일 06시부터 19일 06시까지 (UTC)
여러 방향의 바람 2kt
시정 10km 이상
고도 3000ft 상공 구름 보통
일시적
18일 06시부터 18일 18시까지 (UTC)
시정: 4000m
고도 2000ft 상공 구름 많음, 타워링 적운.
소나기
확률 30% :
일시적
18일 06시부터 18일 15시까지 (UTC)
시정: 2000m
고도 1500ft 상공 구름 많음, 적란운.
소나기
전환 중
18일 12시부터 18일 14시까지 (UTC)
10kt

TAF: TFFR 180500Z 1806/1906 VRB02KT 9999 SCT030 TEMPO 1806/1818 4000 SHRA BKN020TCU PROB30 TEMPO 1806/1815 2000 SHRA BKN015CB BECMG 1812/1814 09010KT

4,000개 이상의 공항 관측 자료 및 예보 (METAR 및 TAF 보고).

지도상에서 검색 가능한 기상관측소가 노란 점과 빨간 점으로 표시되어 있습니다.

기상관측소 명을 보려면 표시 위로 마우스를 이동하세요.

날씨 관측과 예보를 보려면 클릭하세요.

지도 변경 : 확대하려면 엑스 표시가 있는 녹색 버튼, 축소하려면 빼기 표시가 있는 녹색 버튼, 다음 페이지의 지도를 보려면 녹색 화살표를 클릭하세요.


METAR-TAF: